createdAt,value
2018-06-28T00:01:08.112Z,4.20
2018-06-28T00:03:37.225Z,5.33
2018-06-28T00:06:05.982Z,4.63
2018-06-28T00:08:35.413Z,4.40
2018-06-28T00:11:04.144Z,4.40
2018-06-28T00:13:33.228Z,5.23
2018-06-28T00:16:02.135Z,5.57
2018-06-28T00:18:31.638Z,4.30
2018-06-28T00:21:00.778Z,3.47
2018-06-28T00:23:29.843Z,4.23
2018-06-28T00:25:58.577Z,4.13
2018-06-28T00:28:27.310Z,5.93
2018-06-28T00:30:56.062Z,4.17
2018-06-28T00:33:25.138Z,5.23
2018-06-28T00:35:54.628Z,5.47
2018-06-28T00:38:23.455Z,4.97
2018-06-28T00:40:52.634Z,6.70
2018-06-28T00:43:21.779Z,5.27
2018-06-28T00:45:51.049Z,5.67
2018-06-28T00:48:20.240Z,5.90
2018-06-28T00:50:49.540Z,5.97
2018-06-28T00:53:18.785Z,5.00
2018-06-28T00:55:47.515Z,7.33
2018-06-28T00:58:16.765Z,5.47
2018-06-28T01:00:45.843Z,6.70
2018-06-28T01:03:14.564Z,6.47
2018-06-28T01:05:43.549Z,5.33
2018-06-28T01:08:12.290Z,5.67
2018-06-28T01:10:41.393Z,5.07
2018-06-28T01:13:10.813Z,5.53
2018-06-28T01:15:41.240Z,7.40
2018-06-28T01:18:10.726Z,4.87
2018-06-28T01:20:39.785Z,6.13
2018-06-28T01:23:08.551Z,8.50
2018-06-28T01:25:37.997Z,4.77
2018-06-28T01:28:06.762Z,6.00
2018-06-28T01:30:35.565Z,4.33
2018-06-28T01:33:04.731Z,5.57
2018-06-28T01:35:33.562Z,6.43
2018-06-28T01:38:03.103Z,6.10
2018-06-28T01:40:32.250Z,6.43
2018-06-28T01:43:12.413Z,4.63
2018-06-28T01:45:41.507Z,7.33
2018-06-28T01:48:10.643Z,5.20
2018-06-28T01:50:39.712Z,4.90
2018-06-28T01:53:08.912Z,5.57
2018-06-28T01:55:37.739Z,5.27
2018-06-28T01:58:06.877Z,4.33
2018-06-28T02:00:36.605Z,4.93
2018-06-28T02:03:05.919Z,4.63
2018-06-28T02:05:34.940Z,7.13
2018-06-28T02:08:04.383Z,6.37
2018-06-28T02:10:33.240Z,5.93
2018-06-28T02:13:02.821Z,3.80
2018-06-28T02:15:32.825Z,4.63
2018-06-28T02:18:01.584Z,4.13
2018-06-28T02:20:30.396Z,5.27
2018-06-28T02:22:59.716Z,4.40
2018-06-28T02:25:29.140Z,5.47
2018-06-28T02:27:57.904Z,6.20
2018-06-28T02:30:26.631Z,5.53
2018-06-28T02:32:55.720Z,5.43
2018-06-28T02:35:25.138Z,5.00
2018-06-28T02:37:54.206Z,6.03
2018-06-28T02:40:23.302Z,4.57
2018-06-28T02:42:52.379Z,4.37
2018-06-28T02:45:21.505Z,5.07
2018-06-28T02:47:50.604Z,6.93
2018-06-28T02:50:19.732Z,5.73
2018-06-28T02:52:48.853Z,5.17
2018-06-28T02:55:18.424Z,5.47
2018-06-28T02:57:47.862Z,8.10
2018-06-28T03:00:17.039Z,4.43
2018-06-28T03:02:46.533Z,6.80
2018-06-28T03:05:15.366Z,6.53
2018-06-28T03:07:44.184Z,5.23
2018-06-28T03:10:13.074Z,5.27
2018-06-28T03:12:42.567Z,4.93
2018-06-28T03:15:11.906Z,5.63
2018-06-28T03:17:41.221Z,5.37
2018-06-28T03:20:10.315Z,5.50
2018-06-28T03:22:40.296Z,5.40
2018-06-28T03:25:09.813Z,9.33
2018-06-28T03:27:39.319Z,8.77
2018-06-28T03:30:08.171Z,4.17
2018-06-28T03:32:37.771Z,5.70
2018-06-28T03:35:07.265Z,4.73
2018-06-28T03:37:36.043Z,5.63
2018-06-28T03:40:04.791Z,5.03
2018-06-28T03:42:34.221Z,6.30
2018-06-28T03:45:03.287Z,5.57
2018-06-28T03:47:32.792Z,6.23
2018-06-28T03:50:01.544Z,4.60
2018-06-28T03:52:30.983Z,5.37
2018-06-28T03:54:59.872Z,5.20
2018-06-28T03:57:28.722Z,6.00
2018-06-28T03:59:58.011Z,6.47
2018-06-28T04:02:26.778Z,4.90
2018-06-28T04:04:56.151Z,6.30
2018-06-28T04:07:25.690Z,6.07
2018-06-28T04:09:54.496Z,5.53
2018-06-28T04:12:23.660Z,5.20
2018-06-28T04:14:53.761Z,5.23
2018-06-28T04:17:23.225Z,4.87
2018-06-28T04:19:52.432Z,6.30
2018-06-28T04:22:25.989Z,6.93
2018-06-28T04:24:55.043Z,4.67
2018-06-28T04:27:23.972Z,6.20
2018-06-28T04:29:53.167Z,4.87
2018-06-28T04:32:22.127Z,8.17
2018-06-28T04:34:51.485Z,9.83
2018-06-28T04:37:20.625Z,7.80
2018-06-28T04:39:49.338Z,7.93
2018-06-28T04:42:18.078Z,5.30
2018-06-28T04:44:47.275Z,7.80
2018-06-28T04:47:16.414Z,4.40
2018-06-28T04:49:45.985Z,6.67
2018-06-28T04:52:15.242Z,5.70
2018-06-28T04:54:44.394Z,5.47
2018-06-28T04:57:13.793Z,6.03
2018-06-28T04:59:42.924Z,5.60
2018-06-28T05:02:12.393Z,4.57
2018-06-28T05:04:41.162Z,6.27
2018-06-28T05:07:10.420Z,13.10
2018-06-28T05:09:39.676Z,12.07
2018-06-28T05:12:09.099Z,6.70
2018-06-28T05:14:38.847Z,6.12
2018-06-28T05:17:08.332Z,4.37
2018-06-28T05:19:37.887Z,6.58
2018-06-28T05:22:07.605Z,4.22
2018-06-28T05:24:37.077Z,6.12
2018-06-28T05:27:06.863Z,7.67
2018-06-28T05:29:36.225Z,4.75
2018-06-28T05:32:05.997Z,3.62
2018-06-28T05:34:35.575Z,4.25
2018-06-28T05:37:05.716Z,5.17
2018-06-28T05:39:35.868Z,5.25
2018-06-28T05:42:05.272Z,5.25
2018-06-28T05:44:34.620Z,5.10
2018-06-28T05:47:04.468Z,5.47
2018-06-28T05:49:34.390Z,6.10
2018-06-28T05:52:03.675Z,6.45
2018-06-28T05:54:33.317Z,4.37
2018-06-28T05:57:03.431Z,6.92
2018-06-28T05:59:32.825Z,3.65
2018-06-28T06:02:02.652Z,2.98
2018-06-28T06:04:32.153Z,4.85
2018-06-28T06:07:01.823Z,3.92
2018-06-28T06:09:31.101Z,3.10
2018-06-28T06:12:00.819Z,4.85
2018-06-28T06:14:30.617Z,6.08
2018-06-28T06:17:00.284Z,3.90
2018-06-28T06:19:29.987Z,4.53
2018-06-28T06:21:59.787Z,3.35
2018-06-28T06:24:29.288Z,3.55
2018-06-28T06:26:59.268Z,4.50
2018-06-28T06:29:28.619Z,6.70
2018-06-28T06:31:58.347Z,4.95
2018-06-28T06:34:27.996Z,4.47
2018-06-28T06:36:58.060Z,5.05
2018-06-28T06:39:27.764Z,5.65
2018-06-28T06:41:57.068Z,3.20
2018-06-28T06:44:26.698Z,3.55
2018-06-28T06:46:56.004Z,3.25
2018-06-28T06:49:25.816Z,3.42
2018-06-28T06:51:54.932Z,3.45
2018-06-28T06:54:24.236Z,4.33
2018-06-28T06:56:54.055Z,4.87
2018-06-28T06:59:24.097Z,5.95
2018-06-28T07:01:53.845Z,3.55
2018-06-28T07:04:23.211Z,3.47
2018-06-28T07:06:52.757Z,3.12
2018-06-28T07:09:22.248Z,3.02
2018-06-28T07:11:52.067Z,3.12
2018-06-28T07:14:21.849Z,3.22
2018-06-28T07:16:51.333Z,3.55
2018-06-28T07:19:21.114Z,6.45
2018-06-28T07:21:50.429Z,3.37
2018-06-28T07:24:19.785Z,4.50
2018-06-28T07:26:49.450Z,3.02
2018-06-28T07:29:19.510Z,3.80
2018-06-28T07:31:49.146Z,4.70
2018-06-28T07:34:18.863Z,3.80
2018-06-28T07:36:48.492Z,3.08
2018-06-28T07:39:18.159Z,6.45
2018-06-28T07:41:47.831Z,5.60
2018-06-28T07:44:17.502Z,4.22
2018-06-28T07:46:46.871Z,5.30
2018-06-28T07:49:16.761Z,2.52
2018-06-28T07:51:46.769Z,3.95
2018-06-28T07:54:16.654Z,3.47
2018-06-28T07:56:46.652Z,4.70
2018-06-28T07:59:16.787Z,3.75
2018-06-28T08:01:47.178Z,3.17
2018-06-28T08:04:20.074Z,5.58
2018-06-28T08:06:50.698Z,4.37
2018-06-28T08:09:21.174Z,3.25
2018-06-28T08:11:51.575Z,5.62
2018-06-28T08:14:22.209Z,4.00
2018-06-28T08:16:52.967Z,3.42
2018-06-28T08:19:23.213Z,3.77
2018-06-28T08:21:53.748Z,2.60
2018-06-28T08:24:24.146Z,2.47
2018-06-28T08:26:54.588Z,2.77
2018-06-28T08:29:25.012Z,4.97
2018-06-28T08:31:55.659Z,4.78
2018-06-28T08:34:26.063Z,4.25
2018-06-28T08:36:56.760Z,5.72
2018-06-28T08:39:27.204Z,4.12
2018-06-28T08:41:58.105Z,3.20
2018-06-28T08:44:28.559Z,3.75
2018-06-28T08:47:00.147Z,4.75
2018-06-28T08:49:30.536Z,4.22
2018-06-28T08:52:00.989Z,3.65
2018-06-28T08:54:31.820Z,3.83
2018-06-28T08:57:01.751Z,4.77
2018-06-28T08:59:32.123Z,4.80
2018-06-28T09:02:02.020Z,4.60
2018-06-28T09:04:31.883Z,4.70
2018-06-28T09:07:00.644Z,2.67
2018-06-28T09:09:29.716Z,3.90
2018-06-28T09:11:59.215Z,2.50
2018-06-28T09:14:28.060Z,4.10
2018-06-28T09:16:57.196Z,3.87
2018-06-28T09:19:26.636Z,4.33
2018-06-28T09:21:55.722Z,3.87
2018-06-28T09:24:25.192Z,2.23
2018-06-28T09:26:54.184Z,2.93
2018-06-28T09:29:22.988Z,3.20
2018-06-28T09:31:52.082Z,3.83
2018-06-28T09:34:21.115Z,4.57
2018-06-28T09:36:50.277Z,3.43
2018-06-28T09:39:19.164Z,2.97
2018-06-28T09:41:48.345Z,3.73
2018-06-28T09:44:17.694Z,7.13
2018-06-28T09:46:46.631Z,2.63
2018-06-28T09:49:15.665Z,2.87
2018-06-28T09:51:44.851Z,4.10
2018-06-28T09:54:13.954Z,2.53
2018-06-28T09:56:43.048Z,3.80
2018-06-28T09:59:11.794Z,5.07
2018-06-28T10:01:40.904Z,5.37
2018-06-28T10:04:10.044Z,3.20
2018-06-28T10:06:39.775Z,3.87
2018-06-28T10:09:09.995Z,2.58
2018-06-28T10:11:39.763Z,4.10
2018-06-28T10:14:08.536Z,6.10
2018-06-28T10:16:37.341Z,3.83
2018-06-28T10:19:06.070Z,3.83
2018-06-28T10:21:35.491Z,2.43
2018-06-28T10:24:04.293Z,3.00
2018-06-28T10:26:33.699Z,13.63
2018-06-28T10:29:02.493Z,4.03
2018-06-28T10:31:31.269Z,5.50
2018-06-28T10:34:00.500Z,5.10
2018-06-28T10:36:29.848Z,2.63
2018-06-28T10:38:58.833Z,2.50
2018-06-28T10:41:28.119Z,4.87
2018-06-28T10:43:57.361Z,3.27
2018-06-28T10:46:26.263Z,6.80
2018-06-28T10:48:55.524Z,5.43
2018-06-28T10:51:24.794Z,4.03
2018-06-28T10:53:54.393Z,3.83
2018-06-28T10:56:23.704Z,4.20
2018-06-28T10:58:52.671Z,4.13
2018-06-28T11:01:21.762Z,4.60
2018-06-28T11:03:51.234Z,4.23
2018-06-28T11:06:20.392Z,4.97
2018-06-28T11:08:49.454Z,3.40
2018-06-28T11:11:18.533Z,4.90
2018-06-28T11:13:48.096Z,3.20
2018-06-28T11:16:17.720Z,10.37
2018-06-28T11:18:46.592Z,4.47
2018-06-28T11:21:15.629Z,5.50
2018-06-28T11:23:45.065Z,4.07
2018-06-28T11:26:13.805Z,3.23
2018-06-28T11:28:43.034Z,2.50
2018-06-28T11:31:12.178Z,3.70
2018-06-28T11:33:40.932Z,2.97
2018-06-28T11:36:10.212Z,4.53
2018-06-28T11:38:39.175Z,2.30
2018-06-28T11:41:08.722Z,2.40
2018-06-28T11:43:38.894Z,4.27
2018-06-28T11:46:08.373Z,4.23
2018-06-28T11:48:37.675Z,2.83
2018-06-28T11:51:07.287Z,3.37
2018-06-28T11:53:36.569Z,2.63
2018-06-28T11:56:05.558Z,2.90
2018-06-28T11:58:34.847Z,4.50
2018-06-28T12:01:04.316Z,3.67
2018-06-28T12:03:33.398Z,3.23
2018-06-28T12:06:02.534Z,4.80
2018-06-28T12:08:31.280Z,2.33
2018-06-28T12:11:00.140Z,2.77
2018-06-28T12:13:29.742Z,2.83
2018-06-28T12:15:58.653Z,6.87
2018-06-28T12:18:27.718Z,2.90
2018-06-28T12:20:56.772Z,5.97
2018-06-28T12:23:25.510Z,4.80
2018-06-28T12:25:54.642Z,3.47
2018-06-28T12:28:23.712Z,2.37
2018-06-28T12:30:53.456Z,5.33
2018-06-28T12:33:22.891Z,3.93
2018-06-28T12:35:56.880Z,5.40
2018-06-28T12:38:26.617Z,3.70
2018-06-28T12:40:55.794Z,2.83
2018-06-28T12:43:27.083Z,3.10
2018-06-28T12:45:57.079Z,5.00
2018-06-28T12:48:26.161Z,2.90
2018-06-28T12:50:55.635Z,2.73
2018-06-28T12:53:24.696Z,3.00
2018-06-28T12:56:27.772Z,3.83
2018-06-28T12:58:59.428Z,4.03
2018-06-28T13:01:29.166Z,2.17
2018-06-28T13:03:58.887Z,2.40
2018-06-28T13:06:28.258Z,7.97
2018-06-28T13:08:57.551Z,5.50
2018-06-28T13:11:27.050Z,3.83
2018-06-28T13:13:57.067Z,4.35
2018-06-28T13:16:27.697Z,2.40
2018-06-28T13:18:56.628Z,5.85
2018-06-28T13:21:25.582Z,3.53
2018-06-28T13:23:54.829Z,3.80
2018-06-28T13:26:23.880Z,3.87
2018-06-28T13:28:53.365Z,3.55
2018-06-28T13:31:22.753Z,2.40
2018-06-28T13:33:52.580Z,2.62
2018-06-28T13:36:22.624Z,3.10
2018-06-28T13:38:52.020Z,2.65
2018-06-28T13:41:22.096Z,3.17
2018-06-28T13:43:51.408Z,2.00
2018-06-28T13:46:20.463Z,2.47
2018-06-28T13:48:50.075Z,4.43
2018-06-28T13:51:19.837Z,2.12
2018-06-28T13:53:48.919Z,3.30
2018-06-28T13:56:18.572Z,5.22
2018-06-28T13:58:48.232Z,4.42
2018-06-28T14:01:17.875Z,3.75
2018-06-28T14:03:46.643Z,2.67
2018-06-28T14:06:16.346Z,3.05
2018-06-28T14:08:45.756Z,3.60
2018-06-28T14:11:14.849Z,3.83
2018-06-28T14:13:43.658Z,4.13
2018-06-28T14:16:12.762Z,6.60
2018-06-28T14:18:41.920Z,2.37
2018-06-28T14:21:10.816Z,3.00
2018-06-28T14:23:40.384Z,3.70
2018-06-28T14:26:09.807Z,3.47
2018-06-28T14:28:39.500Z,2.85
2018-06-28T14:31:08.735Z,5.33
2018-06-28T14:33:37.559Z,4.93
2018-06-28T14:36:06.468Z,4.70
2018-06-28T14:38:35.681Z,3.27
2018-06-28T14:41:04.758Z,2.27
2018-06-28T14:43:33.638Z,4.93
2018-06-28T14:46:03.555Z,2.40
2018-06-28T14:48:32.811Z,3.23
2018-06-28T14:51:01.564Z,3.10
2018-06-28T14:53:30.899Z,3.70
2018-06-28T14:56:00.289Z,2.70
2018-06-28T14:58:29.729Z,3.93
2018-06-28T15:00:58.670Z,6.43
2018-06-28T15:03:28.189Z,2.37
2018-06-28T15:05:57.695Z,2.83
2018-06-28T15:08:27.117Z,4.23
2018-06-28T15:10:56.216Z,5.80
2018-06-28T15:13:24.943Z,4.87
2018-06-28T15:15:53.771Z,4.80
2018-06-28T15:18:23.106Z,5.70
2018-06-28T15:20:52.205Z,2.73
2018-06-28T15:23:21.356Z,4.77
2018-06-28T15:25:50.440Z,4.60
2018-06-28T15:28:19.242Z,3.77
2018-06-28T15:30:48.609Z,3.27
2018-06-28T15:33:17.632Z,2.53
2018-06-28T15:35:47.011Z,5.03
2018-06-28T15:38:16.306Z,3.00
2018-06-28T15:40:45.672Z,2.00
2018-06-28T15:43:14.828Z,4.93
2018-06-28T15:45:44.235Z,3.93
2018-06-28T15:48:13.437Z,2.87
2018-06-28T15:50:42.435Z,3.90
2018-06-28T15:53:11.231Z,4.00
2018-06-28T15:55:40.169Z,4.93
2018-06-28T15:58:09.196Z,6.30
2018-06-28T16:00:37.956Z,2.93
2018-06-28T16:03:07.055Z,4.87
2018-06-28T16:05:35.843Z,4.20
2018-06-28T16:08:04.690Z,6.87
2018-06-28T16:10:33.454Z,2.90
2018-06-28T16:13:02.914Z,5.13
2018-06-28T16:15:32.458Z,7.77
2018-06-28T16:18:01.573Z,4.50
2018-06-28T16:20:30.664Z,3.37
2018-06-28T16:23:00.107Z,2.53
2018-06-28T16:25:28.878Z,3.30
2018-06-28T16:27:58.050Z,2.77
2018-06-28T16:30:27.224Z,4.63
2018-06-28T16:32:56.104Z,2.63
2018-06-28T16:35:25.008Z,3.63
2018-06-28T16:37:54.322Z,3.83
2018-06-28T16:40:23.536Z,3.87
2018-06-28T16:42:52.865Z,2.83
2018-06-28T16:45:25.149Z,6.80
2018-06-28T16:47:54.307Z,3.20
2018-06-28T16:50:23.854Z,2.90
2018-06-28T16:52:53.554Z,3.33
2018-06-28T16:55:23.031Z,4.47
2018-06-28T16:57:52.230Z,2.23
2018-06-28T17:00:21.099Z,4.27
2018-06-28T17:02:50.207Z,6.77
2018-06-28T17:05:19.395Z,3.63
2018-06-28T17:07:48.309Z,3.47
2018-06-28T17:10:17.403Z,3.40
2018-06-28T17:12:46.162Z,6.73
2018-06-28T17:15:15.304Z,2.90
2018-06-28T17:17:44.153Z,4.57
2018-06-28T17:20:13.745Z,3.53
2018-06-28T17:22:43.277Z,5.40
2018-06-28T17:25:12.606Z,3.47
2018-06-28T17:27:42.163Z,3.67
2018-06-28T17:30:11.588Z,2.87
2018-06-28T17:32:41.085Z,4.63
2018-06-28T17:35:10.213Z,3.40
2018-06-28T17:37:39.041Z,3.27
2018-06-28T17:40:07.855Z,2.63
2018-06-28T17:42:36.683Z,5.53
2018-06-28T17:45:05.549Z,2.53
2018-06-28T17:47:35.049Z,2.67
2018-06-28T17:50:04.247Z,2.43
2018-06-28T17:52:33.209Z,3.77
2018-06-28T17:55:02.369Z,3.10
2018-06-28T17:57:31.239Z,2.43
2018-06-28T18:00:00.049Z,2.60
2018-06-28T18:02:28.864Z,4.10
2018-06-28T18:04:58.004Z,4.60
2018-06-28T18:07:26.989Z,4.90
2018-06-28T18:09:56.102Z,5.27
2018-06-28T18:12:24.885Z,4.77
2018-06-28T18:14:53.680Z,3.90
2018-06-28T18:17:23.223Z,4.23
2018-06-28T18:19:52.024Z,4.10
2018-06-28T18:22:20.923Z,4.30
2018-06-28T18:24:50.967Z,4.43
2018-06-28T18:27:20.490Z,2.50
2018-06-28T18:29:49.408Z,3.53
2018-06-28T18:32:18.303Z,3.63
2018-06-28T18:34:47.149Z,3.83
2018-06-28T18:37:16.193Z,3.20
2018-06-28T18:39:45.850Z,3.57
2018-06-28T18:42:14.954Z,4.57
2018-06-28T18:44:44.165Z,4.10
2018-06-28T18:47:13.109Z,2.73
2018-06-28T18:49:41.969Z,3.20
2018-06-28T18:52:10.944Z,3.47
2018-06-28T18:54:39.747Z,2.67
2018-06-28T18:57:09.079Z,3.40
2018-06-28T18:59:37.916Z,3.57
2018-06-28T19:02:07.068Z,3.23
2018-06-28T19:04:36.387Z,3.60
2018-06-28T19:07:06.494Z,3.20
2018-06-28T19:09:41.539Z,3.60
2018-06-28T19:12:10.862Z,3.03
2018-06-28T19:14:45.149Z,2.30
2018-06-28T19:17:14.275Z,2.90
2018-06-28T19:19:43.115Z,3.50
2018-06-28T19:22:18.144Z,5.53
2018-06-28T19:24:47.464Z,2.77
2018-06-28T19:27:16.357Z,3.20
2018-06-28T19:29:50.873Z,4.83
2018-06-28T19:32:25.457Z,2.70
2018-06-28T19:34:54.738Z,2.43
2018-06-28T19:37:29.679Z,3.47
2018-06-28T19:40:04.059Z,3.53
2018-06-28T19:42:40.693Z,3.60
2018-06-28T19:45:09.959Z,3.63
2018-06-28T19:47:39.196Z,8.33
2018-06-28T19:50:13.826Z,5.87
2018-06-28T19:52:48.373Z,6.40
2018-06-28T19:55:17.535Z,5.13
2018-06-28T19:57:46.781Z,6.00
2018-06-28T20:00:21.523Z,5.73
2018-06-28T20:02:56.761Z,4.20
2018-06-28T20:05:32.719Z,4.73
2018-06-28T20:08:01.792Z,3.67
2018-06-28T20:10:31.192Z,47.83
2018-06-28T20:14:08.723Z,57.17
2018-06-28T20:16:43.409Z,20.90
2018-06-28T20:19:17.992Z,16.63
2018-06-28T20:21:46.756Z,12.90
2018-06-28T20:24:15.607Z,14.83
2018-06-28T20:26:49.824Z,10.47
2018-06-28T20:29:24.246Z,8.93
2018-06-28T20:31:58.774Z,7.43
2018-06-28T20:34:28.379Z,12.50
2018-06-28T20:36:57.291Z,10.83
2018-06-28T20:39:26.814Z,7.87
2018-06-28T20:41:56.045Z,7.13
2018-06-28T20:44:25.592Z,6.50
2018-06-28T20:46:54.352Z,4.80
2018-06-28T20:49:23.116Z,4.60
2018-06-28T20:51:52.633Z,4.77
2018-06-28T20:54:21.736Z,5.37
2018-06-28T20:56:50.541Z,4.13
2018-06-28T20:59:19.328Z,4.33
2018-06-28T21:01:47.958Z,3.70
2018-06-28T21:04:16.957Z,4.47
2018-06-28T21:06:46.323Z,3.80
2018-06-28T21:09:16.007Z,7.00
2018-06-28T21:11:45.170Z,6.07
2018-06-28T21:14:14.386Z,3.37
2018-06-28T21:16:43.336Z,4.97
2018-06-28T21:19:12.637Z,4.47
2018-06-28T21:21:42.286Z,5.00
2018-06-28T21:24:11.529Z,3.53
2018-06-28T21:26:40.554Z,4.07
2018-06-28T21:29:09.862Z,3.33
2018-06-28T21:31:39.224Z,4.17
2018-06-28T21:34:08.242Z,3.37
2018-06-28T21:36:37.423Z,4.37
2018-06-28T21:39:08.228Z,3.50
2018-06-28T21:41:37.051Z,3.93
2018-06-28T21:44:06.779Z,4.80
2018-06-28T21:46:36.546Z,2.60
2018-06-28T21:49:05.668Z,2.53
2018-06-28T21:51:34.823Z,2.87
2018-06-28T21:54:03.867Z,2.83
2018-06-28T21:56:32.667Z,10.07
2018-06-28T21:59:01.787Z,4.60
2018-06-28T22:01:30.913Z,4.10
2018-06-28T22:03:59.661Z,5.20
2018-06-28T22:06:29.067Z,4.00
2018-06-28T22:08:57.832Z,5.27
2018-06-28T22:11:26.612Z,6.40
2018-06-28T22:13:55.673Z,5.53
2018-06-28T22:16:24.802Z,3.93
2018-06-28T22:18:53.964Z,4.50
2018-06-28T22:21:23.161Z,4.37
2018-06-28T22:23:52.822Z,4.57
2018-06-28T22:26:22.027Z,3.53
2018-06-28T22:28:50.898Z,6.27
2018-06-28T22:31:20.490Z,3.10
2018-06-28T22:33:50.909Z,2.93
2018-06-28T22:36:21.126Z,4.90
2018-06-28T22:38:50.296Z,4.67
2018-06-28T22:41:19.183Z,6.10
2018-06-28T22:43:48.017Z,3.67
2018-06-28T22:46:16.802Z,2.87
2018-06-28T22:48:45.661Z,4.63
2018-06-28T22:51:15.074Z,4.17
2018-06-28T22:53:44.151Z,5.50
2018-06-28T22:56:12.984Z,2.80
2018-06-28T22:58:42.037Z,11.37
2018-06-28T23:01:10.764Z,13.30
2018-06-28T23:03:40.196Z,13.53
2018-06-28T23:06:09.020Z,8.73
2018-06-28T23:08:37.802Z,6.50
2018-06-28T23:11:06.848Z,7.70
2018-06-28T23:13:35.634Z,6.53
2018-06-28T23:16:04.364Z,6.10
2018-06-28T23:18:33.476Z,5.80
2018-06-28T23:21:02.253Z,4.30
2018-06-28T23:23:31.132Z,5.80
2018-06-28T23:26:00.693Z,6.73
2018-06-28T23:28:29.823Z,5.83
2018-06-28T23:30:58.907Z,4.80
2018-06-28T23:33:28.143Z,6.33
2018-06-28T23:35:57.591Z,5.73
2018-06-28T23:38:26.709Z,4.53
2018-06-28T23:40:56.231Z,3.90
2018-06-28T23:43:24.941Z,4.73
2018-06-28T23:45:53.760Z,4.07
2018-06-28T23:48:22.843Z,4.37
2018-06-28T23:50:51.601Z,6.27
2018-06-28T23:53:20.992Z,4.53
2018-06-28T23:55:50.190Z,3.33
2018-06-28T23:58:19.319Z,4.87
